createdAt,value
2016-11-28T00:01:14.210Z,4.5
2016-11-28T00:02:28.149Z,4.48
2016-11-28T00:03:42.577Z,4.46
2016-11-28T00:04:56.383Z,4.53
2016-11-28T00:06:10.767Z,4.48
2016-11-28T00:07:24.716Z,4.49
2016-11-28T00:08:38.943Z,4.43
2016-11-28T00:09:53.170Z,4.48
2016-11-28T00:11:07.621Z,4.46
2016-11-28T00:12:22.216Z,4.42
2016-11-28T00:13:37.571Z,4.4
2016-11-28T00:14:51.879Z,4.49
2016-11-28T00:16:06.244Z,4.49
2016-11-28T00:17:20.058Z,4.42
2016-11-28T00:19:04.053Z,4.38
2016-11-28T00:20:18.398Z,4.39
2016-11-28T00:21:32.657Z,4.45
2016-11-28T00:22:46.770Z,4.24
2016-11-28T00:24:00.940Z,4.25
2016-11-28T00:25:15.665Z,4.32
2016-11-28T00:26:44.670Z,4.27
2016-11-28T00:27:58.605Z,4.39
2016-11-28T00:29:13.089Z,4.34
2016-11-28T00:30:27.753Z,4.3
2016-11-28T00:31:41.746Z,4.31
2016-11-28T00:32:56.272Z,4.3
2016-11-28T00:34:10.281Z,4.28
2016-11-28T00:35:24.594Z,4.21
2016-11-28T00:36:39.643Z,4.21
2016-11-28T00:37:53.543Z,4.28
2016-11-28T00:39:08.345Z,4.16
2016-11-28T00:40:22.375Z,4.25
2016-11-28T00:41:36.344Z,4.14
2016-11-28T00:42:50.548Z,4.09
2016-11-28T00:44:04.537Z,4.13
2016-11-28T00:45:18.915Z,4.14
2016-11-28T00:46:35.337Z,4.25
2016-11-28T00:47:50.026Z,4.1
2016-11-28T00:49:04.197Z,4.18
2016-11-28T00:50:18.277Z,4.13
2016-11-28T00:51:32.782Z,4.16
2016-11-28T00:52:46.969Z,4.13
2016-11-28T00:54:01.114Z,4.13
2016-11-28T00:55:15.916Z,4.22
2016-11-28T00:58:43.254Z,4.3
2016-11-28T00:59:57.229Z,4.27
2016-11-28T01:01:11.983Z,4.27
2016-11-28T01:02:26.544Z,4.16
2016-11-28T01:03:40.631Z,4.16
2016-11-28T01:04:54.697Z,4.2
2016-11-28T01:06:09.235Z,4.18
2016-11-28T01:07:23.671Z,4.14
2016-11-28T01:08:37.801Z,4.14
2016-11-28T01:09:51.910Z,4.18
2016-11-28T01:11:06.552Z,4.12
2016-11-28T01:12:21.901Z,4.24
2016-11-28T01:13:37.125Z,4.31
2016-11-28T01:14:51.829Z,4.21
2016-11-28T01:16:09.708Z,4.25
2016-11-28T01:17:28.683Z,4.36
2016-11-28T01:18:46.819Z,4.32
2016-11-28T01:20:01.817Z,4.27
2016-11-28T01:21:15.879Z,4.27
2016-11-28T01:22:30.255Z,4.27
2016-11-28T01:23:44.193Z,4.32
2016-11-28T01:26:27.690Z,4.31
2016-11-28T01:27:41.536Z,4.32
2016-11-28T01:28:55.742Z,4.28
2016-11-28T01:30:09.743Z,4.27
2016-11-28T01:31:24.748Z,4.36
2016-11-28T01:32:39.593Z,4.3
2016-11-28T01:34:08.449Z,4.27
2016-11-28T01:35:22.334Z,4.22
2016-11-28T01:36:51.340Z,4.25
2016-11-28T01:38:05.819Z,4.16
2016-11-28T01:39:20.297Z,4.25
2016-11-28T01:40:34.031Z,4.22
2016-11-28T01:41:48.211Z,4.14
2016-11-28T01:43:02.366Z,4.21
2016-11-28T01:44:16.678Z,4.16
2016-11-28T01:45:31.372Z,4.21
2016-11-28T01:46:45.397Z,4.16
2016-11-28T01:47:59.337Z,4.12
2016-11-28T01:49:28.332Z,4.07
2016-11-28T01:50:43.705Z,4.13
2016-11-28T01:51:58.147Z,4.07
2016-11-28T01:53:12.086Z,4.09
2016-11-28T01:54:26.082Z,4.1
2016-11-28T01:55:40.018Z,4.1
2016-11-28T01:56:54.305Z,4.16
2016-11-28T01:58:09.663Z,4.02
2016-11-28T01:59:23.911Z,4.1
2016-11-28T02:00:37.873Z,4.06
2016-11-28T02:01:52.132Z,4.04
2016-11-28T02:03:06.656Z,4
2016-11-28T02:04:21.005Z,3.96
2016-11-28T02:05:37.581Z,3.96
2016-11-28T02:06:51.735Z,3.92
2016-11-28T02:08:20.494Z,3.96
2016-11-28T02:09:35.168Z,4.03
2016-11-28T02:10:50.179Z,4.02
2016-11-28T02:12:04.342Z,3.99
2016-11-28T02:13:18.155Z,4
2016-11-28T02:14:32.155Z,4.07
2016-11-28T02:15:46.933Z,4
2016-11-28T02:17:01.135Z,4.03
2016-11-28T02:18:14.958Z,3.96
2016-11-28T02:19:28.979Z,4.03
2016-11-28T02:20:43.139Z,4.04
2016-11-28T02:21:57.333Z,4.03
2016-11-28T02:23:11.431Z,3.96
2016-11-28T02:24:25.617Z,4.02
2016-11-28T02:25:39.673Z,4.02
2016-11-28T02:26:53.585Z,4.07
2016-11-28T02:28:07.951Z,4
2016-11-28T02:29:21.654Z,3.94
2016-11-28T02:30:35.737Z,3.92
2016-11-28T02:31:50.113Z,3.96
2016-11-28T02:33:04.467Z,3.95
2016-11-28T02:34:19.587Z,3.91
2016-11-28T02:35:33.423Z,3.88
2016-11-28T02:36:52.361Z,3.82
2016-11-28T02:38:24.745Z,3.82
2016-11-28T02:39:39.756Z,3.68
2016-11-28T02:40:53.789Z,3.74
2016-11-28T02:42:07.970Z,3.71
2016-11-28T02:43:22.036Z,3.77
2016-11-28T02:44:35.963Z,3.71
2016-11-28T02:45:50.672Z,3.77
2016-11-28T02:47:04.669Z,3.68
2016-11-28T02:48:18.744Z,3.67
2016-11-28T02:49:33.008Z,3.66
2016-11-28T02:50:47.169Z,3.66
2016-11-28T02:52:02.083Z,3.63
2016-11-28T02:53:16.104Z,3.58
2016-11-28T02:54:30.332Z,3.64
2016-11-28T02:55:44.388Z,3.61
2016-11-28T02:56:58.602Z,3.59
2016-11-28T02:58:13.323Z,3.64
2016-11-28T02:59:27.294Z,3.58
2016-11-28T03:00:41.667Z,3.59
2016-11-28T03:01:55.758Z,3.61
2016-11-28T03:03:10.134Z,3.58
2016-11-28T03:04:25.039Z,3.53
2016-11-28T03:05:38.816Z,3.58
2016-11-28T03:06:52.738Z,3.37
2016-11-28T03:08:06.638Z,3.46
2016-11-28T03:09:20.725Z,3.53
2016-11-28T03:10:35.296Z,3.55
2016-11-28T03:11:49.363Z,3.49
2016-11-28T03:13:03.402Z,3.41
2016-11-28T03:14:32.004Z,3.45
2016-11-28T03:15:46.332Z,3.4
2016-11-28T03:17:00.785Z,3.43
2016-11-28T03:18:14.607Z,3.41
2016-11-28T03:19:26.052Z,3.41
2016-11-28T03:20:37.388Z,3.41
2016-11-28T03:21:48.717Z,3.48
2016-11-28T03:23:02.869Z,3.4
2016-11-28T03:24:14.426Z,3.34
2016-11-28T03:25:25.860Z,3.34
2016-11-28T03:26:37.206Z,3.4
2016-11-28T03:27:48.567Z,3.41
2016-11-28T03:29:01.384Z,3.46
2016-11-28T03:30:12.692Z,3.34
2016-11-28T03:31:24.598Z,3.41
2016-11-28T03:32:35.887Z,3.33
2016-11-28T03:33:47.241Z,3.26
2016-11-28T03:34:58.918Z,3.22
2016-11-28T03:36:10.673Z,3.27
2016-11-28T03:37:22.025Z,3.29
2016-11-28T03:38:33.963Z,3.21
2016-11-28T03:39:45.386Z,3.26
2016-11-28T03:40:57.090Z,3.24
2016-11-28T03:42:08.889Z,3.18
2016-11-28T03:43:20.315Z,3.16
2016-11-28T03:44:32.307Z,3.15
2016-11-28T03:45:43.741Z,3.15
2016-11-28T03:46:55.269Z,3.13
2016-11-28T03:48:06.846Z,3.13
2016-11-28T03:49:32.955Z,3.11
2016-11-28T03:50:44.374Z,3.06
2016-11-28T03:51:55.991Z,3.12
2016-11-28T03:53:07.434Z,3.13
2016-11-28T03:54:19.151Z,3.15
2016-11-28T03:55:30.479Z,3.16
2016-11-28T03:56:41.842Z,3.11
2016-11-28T03:57:53.130Z,3.27
2016-11-28T03:59:05.152Z,3.18
2016-11-28T04:00:16.442Z,3.21
2016-11-28T04:01:28.166Z,3.27
2016-11-28T04:02:39.616Z,3.24
2016-11-28T04:03:50.957Z,3.24
2016-11-28T04:05:03.019Z,3.22
2016-11-28T04:06:14.938Z,3.27
2016-11-28T04:07:26.242Z,3.26
2016-11-28T04:08:37.483Z,3.19
2016-11-28T04:09:49.137Z,3.16
2016-11-28T04:11:00.586Z,3.18
2016-11-28T04:12:12.063Z,3.22
2016-11-28T04:13:23.616Z,3.29
2016-11-28T04:14:34.989Z,3.3
2016-11-28T04:15:46.368Z,3.24
2016-11-28T04:16:58.323Z,3.16
2016-11-28T04:18:24.527Z,3.22
2016-11-28T04:19:35.930Z,3.21
2016-11-28T04:21:02.126Z,3.37
2016-11-28T04:22:14.347Z,3.24
2016-11-28T04:23:26.249Z,3.3
2016-11-28T04:24:37.528Z,3.26
2016-11-28T04:25:48.953Z,3.26
2016-11-28T04:27:00.435Z,3.21
2016-11-28T04:28:11.982Z,3.21
2016-11-28T04:29:23.215Z,3.19
2016-11-28T04:30:35.038Z,3.24
2016-11-28T04:31:46.691Z,3.22
2016-11-28T04:32:58.523Z,3.19
2016-11-28T04:34:10.075Z,3.21
2016-11-28T04:35:21.640Z,3.22
2016-11-28T04:36:33.966Z,3.24
2016-11-28T04:37:48.378Z,3.27
2016-11-28T04:39:00.011Z,3.26
2016-11-28T04:40:11.477Z,3.19
2016-11-28T04:41:23.310Z,3.26
2016-11-28T04:42:34.862Z,3.21
2016-11-28T04:43:46.997Z,3.24
2016-11-28T04:44:58.854Z,3.3
2016-11-28T04:46:10.801Z,3.22
2016-11-28T04:47:23.049Z,3.16
2016-11-28T04:48:34.245Z,3.21
2016-11-28T04:49:45.655Z,3.24
2016-11-28T04:50:57.338Z,3.21
2016-11-28T04:52:09.289Z,3.16
2016-11-28T04:53:21.136Z,3.15
2016-11-28T04:54:32.492Z,3.19
2016-11-28T04:55:44.078Z,3.15
2016-11-28T04:56:55.871Z,3.11
2016-11-28T05:00:32.713Z,3.05
2016-11-28T05:01:44.586Z,3.03
2016-11-28T05:02:56.598Z,3.03
2016-11-28T05:04:08.439Z,3.06
2016-11-28T05:05:19.643Z,3.19
2016-11-28T05:06:31.311Z,3.09
2016-11-28T05:07:43.263Z,3.13
2016-11-28T05:08:54.563Z,3.13
2016-11-28T05:11:32.551Z,3.16
2016-11-28T05:12:43.835Z,3.19
2016-11-28T05:13:55.364Z,3.26
2016-11-28T05:15:06.711Z,3.22
2016-11-28T05:16:18.222Z,3.27
2016-11-28T05:17:29.899Z,3.33
2016-11-28T05:18:41.387Z,3.37
2016-11-28T05:19:53.201Z,3.29
2016-11-28T05:21:05.201Z,3.31
2016-11-28T05:22:16.946Z,3.41
2016-11-28T05:23:28.364Z,3.37
2016-11-28T05:24:40.240Z,3.33
2016-11-28T05:25:51.753Z,3.33
2016-11-28T05:27:03.521Z,3.36
2016-11-28T05:28:15.222Z,3.36
2016-11-28T05:29:26.885Z,3.37
2016-11-28T05:30:38.163Z,3.52
2016-11-28T05:31:49.790Z,3.45
2016-11-28T05:33:01.456Z,3.27
2016-11-28T05:34:14.350Z,3.48
2016-11-28T05:35:26.373Z,3.4
2016-11-28T05:36:39.629Z,3.37
2016-11-28T05:37:51.893Z,3.27
2016-11-28T05:39:03.720Z,3.34
2016-11-28T05:40:15.700Z,3.19
2016-11-28T05:41:26.967Z,3.21
2016-11-28T05:42:39.089Z,3.09
2016-11-28T05:43:51.013Z,3.13
2016-11-28T05:45:03.742Z,2.97
2016-11-28T05:46:15.492Z,3.01
2016-11-28T05:47:27.003Z,3
2016-11-28T05:48:38.608Z,3.01
2016-11-28T05:49:50.312Z,3
2016-11-28T05:51:01.795Z,2.98
2016-11-28T05:52:13.385Z,3.01
2016-11-28T05:53:27.281Z,2.93
2016-11-28T05:54:38.833Z,2.93
2016-11-28T05:55:50.502Z,2.98
2016-11-28T05:57:02.389Z,2.97
2016-11-28T05:58:14.298Z,2.95
2016-11-28T05:59:25.901Z,2.97
2016-11-28T06:00:37.486Z,2.93
2016-11-28T06:01:49.396Z,2.98
2016-11-28T06:03:01.373Z,2.88
2016-11-28T06:04:13.312Z,2.88
2016-11-28T06:05:24.831Z,2.87
2016-11-28T06:06:36.590Z,2.88
2016-11-28T06:07:48.290Z,2.8
2016-11-28T06:08:59.950Z,2.79
2016-11-28T06:10:11.655Z,2.72
2016-11-28T06:11:23.583Z,2.73
2016-11-28T06:12:34.962Z,2.77
2016-11-28T06:13:46.576Z,2.73
2016-11-28T06:14:57.902Z,2.59
2016-11-28T06:16:09.680Z,2.68
2016-11-28T06:17:20.884Z,2.57
2016-11-28T06:18:32.174Z,2.58
2016-11-28T06:19:43.426Z,2.51
2016-11-28T06:20:55.218Z,2.54
2016-11-28T06:22:06.876Z,2.61
2016-11-28T06:23:18.182Z,2.51
2016-11-28T06:24:29.872Z,2.47
2016-11-28T06:25:41.258Z,2.39
2016-11-28T06:26:53.126Z,2.4
2016-11-28T06:28:04.861Z,2.39
2016-11-28T06:29:16.408Z,2.44
2016-11-28T06:30:27.698Z,2.37
2016-11-28T06:31:38.930Z,2.4
2016-11-28T06:32:50.164Z,2.47
2016-11-28T06:34:01.830Z,2.36
2016-11-28T06:35:13.369Z,2.39
2016-11-28T06:36:25.295Z,2.36
2016-11-28T06:37:36.542Z,2.36
2016-11-28T06:38:47.775Z,2.37
2016-11-28T06:39:59.464Z,2.36
2016-11-28T06:41:10.950Z,2.28
2016-11-28T06:42:22.550Z,2.26
2016-11-28T06:43:33.939Z,2.26
2016-11-28T06:44:45.494Z,2.28
2016-11-28T06:45:56.948Z,2.21
2016-11-28T06:47:08.558Z,2.22
2016-11-28T06:48:19.961Z,2.1
2016-11-28T06:49:31.382Z,2.1
2016-11-28T06:50:43.165Z,2.08
2016-11-28T06:51:55.479Z,2.21
2016-11-28T06:53:06.779Z,2.19
2016-11-28T06:54:18.074Z,2.21
2016-11-28T06:55:29.398Z,2.16
2016-11-28T06:56:40.871Z,2.22
2016-11-28T06:57:52.999Z,2.16
2016-11-28T06:59:04.505Z,2.16
2016-11-28T07:00:16.090Z,2.21
2016-11-28T07:01:27.570Z,2.16
2016-11-28T07:02:39.189Z,2.18
2016-11-28T07:03:51.455Z,2.19
2016-11-28T07:05:03.025Z,2.18
2016-11-28T07:06:14.814Z,2.25
2016-11-28T07:07:28.647Z,2.16
2016-11-28T07:08:40.092Z,2.21
2016-11-28T07:09:52.750Z,2.23
2016-11-28T07:11:04.076Z,2.26
2016-11-28T07:12:15.551Z,2.18
2016-11-28T07:13:26.972Z,2.19
2016-11-28T07:14:38.223Z,2.19
2016-11-28T07:15:49.732Z,2.22
2016-11-28T07:17:01.360Z,2.28
2016-11-28T07:18:12.798Z,2.18
2016-11-28T07:19:24.575Z,2.28
2016-11-28T07:20:36.345Z,2.18
2016-11-28T07:21:48.162Z,2.21
2016-11-28T07:22:59.824Z,2.25
2016-11-28T07:24:11.931Z,2.18
2016-11-28T07:25:23.379Z,2.15
2016-11-28T07:26:34.812Z,2.14
2016-11-28T07:27:46.756Z,2.19
2016-11-28T07:28:58.400Z,2.1
2016-11-28T07:30:10.128Z,2.19
2016-11-28T07:31:22.206Z,2.23
2016-11-28T07:32:33.899Z,2.19
2016-11-28T07:33:45.857Z,2.15
2016-11-28T07:34:57.415Z,2.18
2016-11-28T07:36:09.255Z,2.15
2016-11-28T07:37:20.991Z,2.21
2016-11-28T07:38:32.551Z,2.21
2016-11-28T07:39:44.904Z,2.16
2016-11-28T07:40:56.707Z,2.23
2016-11-28T07:42:08.025Z,2.23
2016-11-28T07:43:19.671Z,2.22
2016-11-28T07:44:31.602Z,2.25
2016-11-28T07:45:43.367Z,2.28
2016-11-28T07:46:54.757Z,2.25
2016-11-28T07:48:06.505Z,2.25
2016-11-28T07:49:18.104Z,2.28
2016-11-28T07:50:29.656Z,2.33
2016-11-28T07:51:41.965Z,2.25
2016-11-28T07:52:53.504Z,2.39
2016-11-28T07:54:05.032Z,2.34
2016-11-28T07:55:16.223Z,2.41
2016-11-28T07:56:28.291Z,2.37
2016-11-28T07:57:40.381Z,2.51
2016-11-28T07:58:51.723Z,2.41
2016-11-28T08:00:03.778Z,2.46
2016-11-28T08:01:15.543Z,2.37
2016-11-28T08:02:27.224Z,2.36
2016-11-28T08:03:39.427Z,2.41
2016-11-28T08:04:50.970Z,2.37
2016-11-28T08:06:02.652Z,2.37
2016-11-28T08:07:14.270Z,2.4
2016-11-28T08:08:25.631Z,2.55
2016-11-28T08:09:37.634Z,2.5
2016-11-28T08:10:49.040Z,2.52
2016-11-28T08:12:00.437Z,2.57
2016-11-28T08:13:26.980Z,2.54
2016-11-28T08:14:38.808Z,2.55
2016-11-28T08:15:51.557Z,2.57
2016-11-28T08:17:03.602Z,2.57
2016-11-28T08:18:15.125Z,2.61
2016-11-28T08:19:26.813Z,2.7
2016-11-28T08:20:38.462Z,2.62
2016-11-28T08:21:53.206Z,2.64
2016-11-28T08:23:05.011Z,2.79
2016-11-28T08:24:16.719Z,2.73
2016-11-28T08:25:28.790Z,2.79
2016-11-28T08:26:40.660Z,2.79
2016-11-28T08:27:52.576Z,2.79
2016-11-28T08:29:04.624Z,2.79
2016-11-28T08:30:16.261Z,2.8
2016-11-28T08:31:28.064Z,2.75
2016-11-28T08:32:39.804Z,2.82
2016-11-28T08:33:51.471Z,2.77
2016-11-28T08:35:03.749Z,2.75
2016-11-28T08:36:15.609Z,2.75
2016-11-28T08:37:27.242Z,2.73
2016-11-28T08:38:38.733Z,2.77
2016-11-28T08:39:50.255Z,2.79
2016-11-28T08:41:02.199Z,2.88
2016-11-28T08:42:14.519Z,2.87
2016-11-28T08:43:25.756Z,2.88
2016-11-28T08:44:37.441Z,2.94
2016-11-28T08:45:49.384Z,2.98
2016-11-28T08:47:00.622Z,2.97
2016-11-28T08:48:12.246Z,3
2016-11-28T08:49:23.607Z,2.98
2016-11-28T08:50:35.059Z,3.09
2016-11-28T08:51:46.590Z,3.01
2016-11-28T08:53:00.373Z,2.97
2016-11-28T08:54:14.565Z,3.01
2016-11-28T08:55:28.659Z,3.21
2016-11-28T08:56:42.532Z,3.37
2016-11-28T08:57:57.276Z,3.34
2016-11-28T08:59:11.673Z,3.31
2016-11-28T09:00:26.555Z,3.24
2016-11-28T09:01:40.902Z,3.19
2016-11-28T09:02:55.306Z,3.24
2016-11-28T09:04:09.986Z,3.33
2016-11-28T09:05:24.117Z,3.26
2016-11-28T09:06:38.888Z,3.26
2016-11-28T09:07:53.215Z,3.27
2016-11-28T09:09:07.044Z,3.4
2016-11-28T09:10:21.810Z,3.27
2016-11-28T09:11:35.697Z,3.58
2016-11-28T09:12:49.609Z,3.99
2016-11-28T09:14:03.780Z,4.43
2016-11-28T09:15:18.056Z,4.53
2016-11-28T09:16:32.178Z,4.45
2016-11-28T09:17:46.017Z,4.04
2016-11-28T09:19:00.540Z,3.78
2016-11-28T09:20:15.308Z,3.81
2016-11-28T09:21:29.386Z,3.74
2016-11-28T09:22:44.587Z,3.61
2016-11-28T09:23:59.292Z,3.66
2016-11-28T09:25:27.970Z,3.66
2016-11-28T09:26:42.922Z,3.59
2016-11-28T09:27:57.298Z,3.52
2016-11-28T09:29:11.737Z,3.56
2016-11-28T09:30:25.510Z,3.55
2016-11-28T09:31:39.311Z,3.58
2016-11-28T09:32:53.257Z,3.66
2016-11-28T09:34:08.105Z,3.55
2016-11-28T09:35:22.255Z,3.59
2016-11-28T09:36:36.370Z,3.74
2016-11-28T09:37:52.423Z,3.76
2016-11-28T09:39:06.344Z,3.74
2016-11-28T09:40:20.982Z,3.78
2016-11-28T09:41:34.891Z,3.73
2016-11-28T09:42:48.780Z,3.71
2016-11-28T09:44:02.946Z,3.71
2016-11-28T09:45:17.418Z,3.74
2016-11-28T09:46:31.610Z,3.96
2016-11-28T09:47:46.128Z,3.86
2016-11-28T09:49:00.793Z,3.73
2016-11-28T09:50:15.919Z,3.73
2016-11-28T09:51:30.450Z,3.66
2016-11-28T09:52:45.304Z,3.64
2016-11-28T09:54:00.505Z,3.63
2016-11-28T09:55:14.599Z,3.61
2016-11-28T09:56:28.483Z,3.73
2016-11-28T09:57:42.904Z,3.77
2016-11-28T09:58:57.428Z,3.7
2016-11-28T10:00:11.598Z,3.7
2016-11-28T10:01:25.425Z,3.64
2016-11-28T10:02:39.268Z,3.78
2016-11-28T10:03:53.255Z,3.77
2016-11-28T10:05:08.515Z,3.81
2016-11-28T10:06:22.801Z,3.85
2016-11-28T10:07:37.874Z,3.92
2016-11-28T10:08:52.630Z,3.95
2016-11-28T10:10:06.866Z,3.99
2016-11-28T10:11:21.991Z,3.89
2016-11-28T10:12:35.716Z,3.92
2016-11-28T10:13:49.540Z,3.92
2016-11-28T10:15:03.220Z,3.94
2016-11-28T10:16:17.260Z,3.89
2016-11-28T10:17:31.732Z,3.82
2016-11-28T10:18:46.015Z,3.85
2016-11-28T10:20:14.667Z,3.92
2016-11-28T10:21:28.833Z,3.94
2016-11-28T10:22:42.977Z,3.92
2016-11-28T10:23:56.962Z,3.94
2016-11-28T10:25:26.513Z,3.96
2016-11-28T10:26:40.405Z,4.1
2016-11-28T10:27:54.466Z,4.04
2016-11-28T10:29:08.145Z,4.16
2016-11-28T10:30:22.118Z,4.32
2016-11-28T10:31:36.637Z,4.3
2016-11-28T10:33:06.353Z,4.31
2016-11-28T10:34:20.798Z,4.28
2016-11-28T10:35:34.810Z,4.31
2016-11-28T10:36:49.046Z,4.27
2016-11-28T10:38:02.872Z,4.16
2016-11-28T10:39:16.927Z,4.12
2016-11-28T10:40:31.571Z,4.18
2016-11-28T10:41:45.257Z,4.22
2016-11-28T10:42:59.198Z,4.3
2016-11-28T10:44:13.686Z,4.18
2016-11-28T10:45:27.712Z,4.16
2016-11-28T10:46:42.683Z,4.14
2016-11-28T10:47:56.624Z,4.03
2016-11-28T10:49:10.594Z,4.12
2016-11-28T10:50:24.370Z,4.3
2016-11-28T10:51:38.316Z,4.18
2016-11-28T10:52:52.759Z,4.13
2016-11-28T10:54:06.879Z,4.2
2016-11-28T10:55:23.173Z,4.25
2016-11-28T10:56:37.417Z,4.31
2016-11-28T10:57:51.287Z,4.2
2016-11-28T10:59:05.725Z,4.34
2016-11-28T11:00:20.016Z,4.3
2016-11-28T11:01:35.148Z,4.31
2016-11-28T11:03:07.256Z,4.31
2016-11-28T11:04:21.294Z,4.31
2016-11-28T11:05:36.012Z,4.24
2016-11-28T11:06:50.749Z,4.21
2016-11-28T11:08:04.675Z,4.32
2016-11-28T11:09:18.356Z,4.31
2016-11-28T11:10:32.238Z,4.3
2016-11-28T11:11:46.634Z,4.38
2016-11-28T11:13:01.367Z,4.24
2016-11-28T11:14:15.809Z,4.27
2016-11-28T11:15:30.045Z,4.43
2016-11-28T11:16:44.278Z,4.45
2016-11-28T11:17:58.626Z,4.63
2016-11-28T11:19:12.572Z,4.66
2016-11-28T11:20:26.393Z,4.6
2016-11-28T11:21:40.768Z,4.61
2016-11-28T11:22:54.652Z,4.57
2016-11-28T11:24:09.051Z,4.64
2016-11-28T11:25:23.607Z,4.5
2016-11-28T11:26:37.657Z,4.49
2016-11-28T11:27:51.887Z,4.49
2016-11-28T11:29:05.576Z,4.52
2016-11-28T11:30:20.656Z,4.48
2016-11-28T11:31:34.738Z,4.6
2016-11-28T11:32:48.965Z,4.52
2016-11-28T11:34:02.898Z,4.53
2016-11-28T11:35:17.136Z,4.48
2016-11-28T11:36:46.331Z,4.58
2016-11-28T11:38:00.464Z,4.49
2016-11-28T11:39:14.137Z,4.52
2016-11-28T11:40:27.996Z,4.46
2016-11-28T11:41:41.932Z,4.45
2016-11-28T11:42:56.047Z,4.38
2016-11-28T11:44:10.162Z,4.3
2016-11-28T11:45:23.817Z,4.28
2016-11-28T11:46:52.862Z,4.3
2016-11-28T11:48:07.135Z,4.43
2016-11-28T11:49:21.434Z,4.5
2016-11-28T11:50:35.349Z,4.5
2016-11-28T11:51:49.990Z,4.42
2016-11-28T11:53:03.994Z,4.53
2016-11-28T11:54:18.677Z,4.5
2016-11-28T11:55:32.822Z,4.57
2016-11-28T11:56:46.733Z,4.67
2016-11-28T11:58:01.047Z,4.49
2016-11-28T11:59:15.612Z,4.48
2016-11-28T12:00:29.757Z,4.6
2016-11-28T12:01:43.632Z,4.56
2016-11-28T12:02:57.718Z,4.57
2016-11-28T12:04:11.641Z,4.57
2016-11-28T12:05:26.108Z,4.53
2016-11-28T12:06:40.541Z,4.46
2016-11-28T12:07:54.676Z,4.49
2016-11-28T12:09:23.758Z,4.48
2016-11-28T12:10:38.058Z,4.53
2016-11-28T12:11:52.662Z,4.4
2016-11-28T12:13:08.736Z,4.45
2016-11-28T12:14:23.137Z,4.48
2016-11-28T12:15:36.846Z,4.56
2016-11-28T12:16:50.771Z,4.49
2016-11-28T12:18:05.104Z,4.52
2016-11-28T12:19:19.313Z,4.5
2016-11-28T12:20:33.653Z,4.57
2016-11-28T12:21:47.435Z,4.52
2016-11-28T12:23:01.419Z,4.49
2016-11-28T12:24:16.139Z,4.46
2016-11-28T12:25:30.253Z,4.6
2016-11-28T12:26:44.502Z,4.53
2016-11-28T12:27:58.206Z,4.6
2016-11-28T12:29:12.265Z,4.58
2016-11-28T12:30:26.909Z,4.58
2016-11-28T12:31:45.365Z,4.66
2016-11-28T12:32:59.302Z,4.64
2016-11-28T12:34:13.037Z,4.63
2016-11-28T12:35:27.144Z,4.64
2016-11-28T12:36:41.577Z,4.63
2016-11-28T12:37:55.597Z,4.49
2016-11-28T12:39:09.848Z,4.57
2016-11-28T12:40:24.102Z,4.52
2016-11-28T12:41:38.216Z,4.6
2016-11-28T12:42:52.174Z,4.57
2016-11-28T12:44:05.936Z,4.53
2016-11-28T12:45:20.533Z,4.7
2016-11-28T12:46:34.305Z,4.67
2016-11-28T12:47:48.292Z,4.64
2016-11-28T12:49:02.264Z,4.78
2016-11-28T12:50:15.985Z,4.79
2016-11-28T12:51:30.634Z,4.79
2016-11-28T12:52:44.435Z,4.84
2016-11-28T12:53:58.436Z,4.67
2016-11-28T12:55:13.223Z,4.66
2016-11-28T12:56:27.095Z,4.63
2016-11-28T12:57:41.736Z,4.66
2016-11-28T12:58:55.575Z,4.7
2016-11-28T13:00:10.352Z,4.71
2016-11-28T13:01:24.775Z,4.75
2016-11-28T13:02:39.083Z,4.74
2016-11-28T13:03:53.567Z,4.74
2016-11-28T13:05:23.256Z,4.83
2016-11-28T13:06:38.580Z,4.89
2016-11-28T13:07:53.178Z,4.89
2016-11-28T13:09:07.035Z,4.86
2016-11-28T13:10:21.194Z,4.9
2016-11-28T13:11:50.893Z,4.82
2016-11-28T13:13:20.122Z,4.9
2016-11-28T13:14:34.698Z,4.79
2016-11-28T13:15:48.833Z,4.79
2016-11-28T13:17:04.367Z,4.9
2016-11-28T13:18:18.729Z,4.95
2016-11-28T13:19:32.868Z,4.94
2016-11-28T13:20:46.812Z,4.95
2016-11-28T13:22:01.253Z,5.01
2016-11-28T13:23:15.777Z,5.02
2016-11-28T13:24:45.298Z,5.01
2016-11-28T13:25:59.687Z,4.98
2016-11-28T13:27:15.165Z,4.98
2016-11-28T13:28:29.883Z,4.9
2016-11-28T13:29:43.722Z,4.89
2016-11-28T13:30:59.979Z,4.83
2016-11-28T13:32:14.705Z,4.84
2016-11-28T13:33:29.025Z,4.86
2016-11-28T13:34:42.812Z,4.82
2016-11-28T13:35:56.784Z,4.86
2016-11-28T13:37:11.171Z,4.7
2016-11-28T13:38:25.139Z,4.63
2016-11-28T13:39:39.672Z,4.68
2016-11-28T13:40:53.711Z,4.67
2016-11-28T13:42:09.673Z,4.75
2016-11-28T13:43:24.074Z,4.79
2016-11-28T13:44:37.958Z,4.76
2016-11-28T13:45:52.217Z,4.9
2016-11-28T13:47:06.633Z,4.82
2016-11-28T13:48:20.504Z,4.84
2016-11-28T13:49:35.318Z,4.79
2016-11-28T13:50:49.344Z,4.71
2016-11-28T13:52:07.589Z,4.68
2016-11-28T13:53:36.672Z,4.67
2016-11-28T13:54:50.728Z,4.6
2016-11-28T13:56:05.414Z,4.57
2016-11-28T13:57:19.459Z,4.57
2016-11-28T13:58:33.970Z,4.58
2016-11-28T13:59:48.264Z,4.58
2016-11-28T14:01:02.329Z,4.58
2016-11-28T14:02:31.420Z,4.6
2016-11-28T14:03:45.667Z,4.67
2016-11-28T14:04:59.826Z,4.61
2016-11-28T14:06:13.697Z,4.64
2016-11-28T14:07:27.928Z,4.66
2016-11-28T14:08:41.798Z,4.66
2016-11-28T14:09:55.594Z,4.67
2016-11-28T14:11:09.656Z,4.58
2016-11-28T14:12:23.843Z,4.6
2016-11-28T14:13:37.936Z,4.58
2016-11-28T14:14:52.302Z,4.58
2016-11-28T14:16:06.235Z,4.53
2016-11-28T14:17:20.517Z,4.52
2016-11-28T14:18:34.648Z,4.46
2016-11-28T14:19:48.617Z,4.49
2016-11-28T14:21:02.387Z,4.48
2016-11-28T14:22:16.719Z,4.57
2016-11-28T14:23:30.583Z,4.53
2016-11-28T14:24:45.037Z,4.53
2016-11-28T14:25:59.819Z,4.53
2016-11-28T14:27:13.836Z,4.43
2016-11-28T14:28:28.796Z,4.52
2016-11-28T14:29:46.331Z,4.53
2016-11-28T14:31:00.127Z,4.52
2016-11-28T14:32:14.538Z,4.45
2016-11-28T14:33:30.891Z,4.48
2016-11-28T14:34:44.763Z,4.46
2016-11-28T14:35:59.136Z,4.52
2016-11-28T14:37:13.157Z,4.38
2016-11-28T14:38:27.834Z,4.48
2016-11-28T14:39:42.573Z,4.48
2016-11-28T14:40:56.671Z,4.45
2016-11-28T14:42:10.988Z,4.4
2016-11-28T14:43:26.095Z,4.38
2016-11-28T14:44:41.513Z,4.45
2016-11-28T14:45:55.676Z,4.49
2016-11-28T14:47:11.511Z,4.39
2016-11-28T14:48:28.475Z,4.36
2016-11-28T14:49:43.469Z,4.45
2016-11-28T14:50:58.375Z,4.45
2016-11-28T14:52:13.195Z,4.36
2016-11-28T14:53:28.581Z,4.45
2016-11-28T14:54:43.799Z,4.25
2016-11-28T14:55:59.635Z,4.3
2016-11-28T14:57:16.715Z,4.24
2016-11-28T14:58:31.963Z,4.28
2016-11-28T14:59:46.152Z,4.28
2016-11-28T15:01:01.757Z,4.25
2016-11-28T15:02:17.699Z,4.1
2016-11-28T15:03:32.712Z,4.12
2016-11-28T15:04:48.044Z,4.16
2016-11-28T15:06:18.604Z,4.14
2016-11-28T15:07:33.547Z,4.22
2016-11-28T15:08:48.366Z,4.16
2016-11-28T15:10:02.605Z,4.09
2016-11-28T15:11:16.487Z,4.12
2016-11-28T15:12:30.593Z,4.12
2016-11-28T15:13:44.578Z,4.02
2016-11-28T15:14:59.365Z,3.99
2016-11-28T15:16:14.304Z,3.96
2016-11-28T15:17:28.486Z,4.02
2016-11-28T15:18:57.058Z,3.96
2016-11-28T15:20:11.089Z,3.85
2016-11-28T15:21:25.262Z,3.89
2016-11-28T15:22:39.466Z,3.85
2016-11-28T15:23:53.637Z,3.82
2016-11-28T15:25:07.948Z,3.82
2016-11-28T15:26:22.391Z,3.85
2016-11-28T15:27:36.781Z,3.74
2016-11-28T15:28:50.527Z,3.76
2016-11-28T15:30:04.710Z,3.71
2016-11-28T15:31:18.789Z,3.67
2016-11-28T15:32:33.124Z,3.68
2016-11-28T15:33:47.008Z,3.73
2016-11-28T15:35:00.747Z,3.73
2016-11-28T15:36:14.842Z,3.7
2016-11-28T15:37:29.207Z,3.68
2016-11-28T15:38:43.440Z,3.66
2016-11-28T15:39:57.393Z,3.64
2016-11-28T15:41:11.264Z,3.64
2016-11-28T15:42:25.317Z,3.59
2016-11-28T15:43:39.360Z,3.55
2016-11-28T15:44:53.525Z,3.58
2016-11-28T15:46:07.976Z,3.56
2016-11-28T15:47:21.842Z,3.56
2016-11-28T15:48:35.875Z,3.55
2016-11-28T15:49:50.194Z,3.58
2016-11-28T15:51:04.811Z,3.45
2016-11-28T15:52:19.582Z,3.48
2016-11-28T15:53:33.612Z,3.34
2016-11-28T15:54:47.390Z,3.36
2016-11-28T15:56:01.181Z,3.37
2016-11-28T15:57:30.159Z,3.41
2016-11-28T15:58:44.178Z,3.4
2016-11-28T15:59:58.520Z,3.27
2016-11-28T16:01:12.635Z,3.29
2016-11-28T16:02:27.331Z,3.21
2016-11-28T16:03:41.293Z,3.21
2016-11-28T16:04:55.428Z,3.24
2016-11-28T16:06:26.370Z,3.24
2016-11-28T16:07:40.832Z,3.13
2016-11-28T16:08:55.022Z,3.15
2016-11-28T16:10:08.769Z,3.12
2016-11-28T16:11:23.630Z,3.13
2016-11-28T16:12:38.088Z,3.13
2016-11-28T16:13:52.750Z,3.13
2016-11-28T16:15:07.358Z,3.06
2016-11-28T16:16:21.555Z,3.03
2016-11-28T16:17:35.505Z,3
2016-11-28T16:18:49.365Z,3
2016-11-28T16:20:03.960Z,3.08
2016-11-28T16:21:18.814Z,3.03
2016-11-28T16:22:33.563Z,3.03
2016-11-28T16:23:47.937Z,3.03
2016-11-28T16:25:02.614Z,3.03
2016-11-28T16:26:16.853Z,3.05
2016-11-28T16:27:31.309Z,3.05
2016-11-28T16:28:45.302Z,2.98
2016-11-28T16:29:59.692Z,3.05
2016-11-28T16:31:14.055Z,3.01
2016-11-28T16:32:28.876Z,2.93
2016-11-28T16:33:43.426Z,2.87
2016-11-28T16:34:57.850Z,2.88
2016-11-28T16:36:12.443Z,2.93
2016-11-28T16:37:26.660Z,2.95